Nearby METAR Reports

 

LIBV - Gioia Del Colle, Italy
Distance from station: SSØ 15km
Oppdatert: 14/10/2019 21:55
Mist, Delvis skyet
Mist, Delvis skyet
 Vind fra varies
Vind: varies 4 km/h
Temperatur: 15°C
Duggpunkt: 15°C
Fuktighet: 100%
Barometer: 1020 hPa
Oversikt: Mist
Clouds: Delvis skyet
Visibility: 4 km
2019/10/14 19:55 LIBV 141955Z VRB02KT 4000 BR NSC 15/15 Q1020 RMK SKC VIS MIN 4000 WIND THR32 VRB02KT WIND THR14 VRB01KT GRN
LIBD - Bari/Palese Macc, Italy
Distance from station: NNV 26km
Oppdatert: 14/10/2019 22:20
Klart
Klart
 Vind fra SV
Vind: SV 9 km/h
Temperatur: 16°C
Duggpunkt: 15°C
Fuktighet: 94%
Barometer: 1020 hPa
Oversikt: Klart
Visibility: greater than 10 km
2019/10/14 20:20 LIBD 142020Z 22005KT CAVOK 16/15 Q1020
 
LIBH - Marina Di Ginosa, Italy
Distance from station: S 53km
Oppdatert: 14/10/2019 19:55
NOT Current
Klart
Klart
 Vind fra NV
Vind: NV 7 km/h
Temperatur: 20°C
Duggpunkt: 18°C
Fuktighet: 88%
Barometer: 1018 hPa
Oversikt: Klart
Visibility: greater than 10 km
2019/10/14 17:55 LIBH 141755Z 32004KT CAVOK 20/18 Q1018 RMK SKC QUK / QUL / VIS MAR 15 KM VIS MIN 9999
LIBG - Grottaglie(Civ/A, Italy
Distance from station: SØ 61km
Oppdatert: 14/10/2019 19:50
NOT Current
Klart
Klart
 Vind fra N
Vind: N 6 km/h
Temperatur: 19°C
Duggpunkt: 16°C
Fuktighet: 83%
Barometer: 1020 hPa
Oversikt: Klart
Visibility: greater than 10 km
2019/10/14 17:50 LIBG 141750Z 01003KT 340V050 CAVOK 19/16 Q1020
 
LIBR - Brindisi/Casale, Italy
Distance from station: ØSØ 96km
Oppdatert: 14/10/2019 22:20
Klart
Klart
 Vind fra VSV
Vind: VSV 7 km/h
Temperatur: 17°C
Duggpunkt: 16°C
Fuktighet: 94%
Barometer: 1020 hPa
Oversikt: Klart
Visibility: greater than 10 km
2019/10/14 20:20 LIBR 142020Z 25004KT CAVOK 17/16 Q1020
LIBA - Amendola (it-Afb, Italy
Distance from station: NV 118km
Oppdatert: 14/10/2019 21:55
Delvis skyet
Delvis skyet
 Vind fra V
Vind: V 2 km/h
Temperatur: 18°C
Duggpunkt: 17°C
Fuktighet: 94%
Barometer: 1020 hPa
Clouds: Delvis skyet
Visibility: 8 km
Cloud details: Few Clouds 183 m
Delvis skyet 610 m
2019/10/14 19:55 LIBA 141955Z 26001KT 8000 FEW006 SCT020 18/17 Q1020 RMK BKN VIS MIN 8000 WIND THR11 24001KT WIND THR29 /////KT BLU
 
LIBF - Foggia/Gino Lisa, Italy
Distance from station: VNV 126km
Oppdatert: 14/10/2019 17:50
NOT Current
Klart
Klart
 Vind fra Ø
Vind: Ø 17 km/h
Temperatur: 21°C
Duggpunkt: 16°C
Fuktighet: 73%
Barometer: 1020 hPa
Oversikt: Klart
Visibility: greater than 10 km
2019/10/14 15:50 LIBF 141550Z 09009KT CAVOK 21/16 Q1020
LIBN - Lecce (it-Afb), Italy
Distance from station: SØ 132km
Oppdatert: 14/10/2019 21:55
Klart
Klart
 Vind fra calm
Vind: Stille
Temperatur: 16°C
Duggpunkt: 15°C
Fuktighet: 94%
Barometer: 1020 hPa
Oversikt: Klart
Visibility: greater than 10 km
2019/10/14 19:55 LIBN 141955Z 00000KT CAVOK 16/15 Q1020 RMK SKC VIS MIN 9999 WIND THR14 00000KT WIND THR32 00000KT BLU